createdAt,value
2022-09-11T00:01:43.160Z,15.25
2022-09-11T00:04:11.963Z,15.28
2022-09-11T00:06:40.976Z,15.29
2022-09-11T00:09:09.554Z,15.29
2022-09-11T00:11:41.366Z,15.30
2022-09-11T00:14:11.940Z,15.32
2022-09-11T00:16:44.859Z,15.32
2022-09-11T00:19:16.610Z,15.34
2022-09-11T00:21:45.363Z,15.37
2022-09-11T00:24:15.366Z,15.38
2022-09-11T00:26:47.802Z,15.41
2022-09-11T00:29:15.844Z,15.42
2022-09-11T00:31:45.332Z,15.43
2022-09-11T00:34:13.737Z,15.42
2022-09-11T00:36:43.149Z,15.44
2022-09-11T00:39:12.105Z,15.49
2022-09-11T00:41:44.661Z,15.55
2022-09-11T00:45:00.802Z,15.60
2022-09-11T00:47:32.158Z,15.69
2022-09-11T00:50:10.956Z,15.78
2022-09-11T00:52:43.278Z,15.84
2022-09-11T00:55:16.577Z,15.91
2022-09-11T00:57:48.431Z,15.97
2022-09-11T01:00:17.283Z,16.01
2022-09-11T01:02:50.641Z,16.02
2022-09-11T01:05:22.369Z,16.00
2022-09-11T01:07:54.349Z,15.98
2022-09-11T01:10:31.855Z,15.96
2022-09-11T01:13:10.057Z,15.98
2022-09-11T01:15:47.281Z,16.00
2022-09-11T01:18:26.818Z,15.99
2022-09-11T01:21:13.069Z,15.93
2022-09-11T01:24:03.144Z,15.83
2022-09-11T01:26:55.956Z,15.80
2022-09-11T01:29:30.518Z,15.80
2022-09-11T01:32:06.746Z,15.78
2022-09-11T01:34:38.494Z,15.74
2022-09-11T01:37:13.834Z,15.70
2022-09-11T01:39:46.271Z,15.67
2022-09-11T01:42:23.049Z,15.64
2022-09-11T01:44:56.251Z,15.61
2022-09-11T01:47:26.079Z,15.61
2022-09-11T01:50:01.498Z,15.61
2022-09-11T01:52:35.197Z,15.59
2022-09-11T01:55:10.880Z,15.54
2022-09-11T01:57:43.838Z,15.52
2022-09-11T02:00:14.968Z,15.49
2022-09-11T02:02:48.168Z,15.46
2022-09-11T02:05:20.468Z,15.46
2022-09-11T02:07:54.484Z,15.45
2022-09-11T02:10:29.191Z,15.46
2022-09-11T02:13:06.598Z,15.46
2022-09-11T02:15:44.815Z,15.48
2022-09-11T02:18:21.602Z,15.55
2022-09-11T02:20:51.431Z,15.60
2022-09-11T02:23:20.026Z,15.60
2022-09-11T02:25:49.100Z,15.55
2022-09-11T02:28:18.256Z,15.49
2022-09-11T02:30:47.947Z,15.48
2022-09-11T02:33:30.998Z,15.50
2022-09-11T02:36:36.635Z,15.50
2022-09-11T02:39:25.538Z,15.49
2022-09-11T02:42:20.976Z,15.47
2022-09-11T02:44:58.609Z,15.42
2022-09-11T02:47:43.752Z,15.39
2022-09-11T02:50:23.651Z,15.38
2022-09-11T02:53:02.890Z,15.37
2022-09-11T02:55:46.887Z,15.34
2022-09-11T02:58:22.098Z,15.31
2022-09-11T03:00:50.416Z,15.27
2022-09-11T03:03:21.153Z,15.27
2022-09-11T03:05:49.299Z,15.27
2022-09-11T03:08:18.543Z,15.23
2022-09-11T03:10:46.976Z,15.21
2022-09-11T03:13:15.283Z,15.18
2022-09-11T03:15:43.455Z,15.17
2022-09-11T03:18:14.588Z,15.15
2022-09-11T03:20:47.322Z,15.14
2022-09-11T03:23:15.512Z,15.10
2022-09-11T03:25:43.559Z,15.09
2022-09-11T03:28:12.072Z,15.04
2022-09-11T03:30:42.004Z,15.01
2022-09-11T03:33:10.239Z,14.99
2022-09-11T03:35:38.459Z,14.94
2022-09-11T03:38:07.874Z,14.92
2022-09-11T03:40:35.961Z,14.89
2022-09-11T03:43:04.131Z,14.87
2022-09-11T03:45:32.355Z,14.86
2022-09-11T03:48:01.196Z,14.83
2022-09-11T03:50:29.282Z,14.80
2022-09-11T03:52:57.362Z,14.79
2022-09-11T03:55:27.245Z,14.81
2022-09-11T03:57:55.344Z,14.85
2022-09-11T04:00:23.478Z,14.89
2022-09-11T04:02:51.786Z,14.88
2022-09-11T04:05:20.080Z,14.89
2022-09-11T04:07:48.901Z,14.89
2022-09-11T04:10:17.456Z,14.89
2022-09-11T04:12:46.960Z,14.88
2022-09-11T04:15:15.455Z,14.88
2022-09-11T04:17:43.522Z,14.88
2022-09-11T04:20:12.488Z,14.86
2022-09-11T04:22:41.554Z,14.81
2022-09-11T04:25:11.104Z,14.75
2022-09-11T04:27:39.570Z,14.68
2022-09-11T04:30:10.941Z,14.63
2022-09-11T04:32:39.016Z,14.62
2022-09-11T04:35:08.455Z,14.61
2022-09-11T04:37:36.609Z,14.61
2022-09-11T04:40:05.466Z,14.58
2022-09-11T04:42:33.532Z,14.55
2022-09-11T04:45:01.603Z,14.57
2022-09-11T04:47:31.252Z,14.55
2022-09-11T04:49:59.327Z,14.58
2022-09-11T04:52:27.825Z,14.61
2022-09-11T04:54:55.971Z,14.66
2022-09-11T04:57:24.030Z,14.72
2022-09-11T04:59:52.709Z,14.76
2022-09-11T05:02:21.943Z,14.78
2022-09-11T05:04:51.461Z,14.79
2022-09-11T05:07:19.784Z,14.78
2022-09-11T05:09:48.153Z,14.78
2022-09-11T05:12:17.667Z,14.77
2022-09-11T05:14:45.758Z,14.77
2022-09-11T05:17:14.393Z,14.78
2022-09-11T05:19:43.227Z,14.78
2022-09-11T05:22:17.823Z,14.82
2022-09-11T05:24:47.091Z,14.82
2022-09-11T05:27:15.134Z,14.82
2022-09-11T05:29:44.136Z,14.83
2022-09-11T05:32:13.167Z,14.86
2022-09-11T05:34:41.315Z,14.86
2022-09-11T05:37:09.416Z,14.88
2022-09-11T05:39:38.898Z,14.88
2022-09-11T05:42:07.481Z,14.88
2022-09-11T05:44:37.058Z,14.89
2022-09-11T05:47:06.199Z,14.91
2022-09-11T05:49:36.902Z,14.94
2022-09-11T05:52:05.154Z,14.97
2022-09-11T05:54:33.295Z,15.00
2022-09-11T05:57:07.389Z,15.04
2022-09-11T05:59:36.596Z,15.08
2022-09-11T06:02:04.977Z,15.14
2022-09-11T06:04:34.107Z,15.22
2022-09-11T06:07:02.179Z,15.28
2022-09-11T06:09:30.313Z,15.34
2022-09-11T06:11:58.470Z,15.40
2022-09-11T06:14:27.895Z,15.46
2022-09-11T06:16:57.287Z,15.53
2022-09-11T06:19:25.478Z,15.60
2022-09-11T06:21:53.541Z,15.66
2022-09-11T06:24:21.598Z,15.73
2022-09-11T06:26:49.800Z,15.81
2022-09-11T06:29:17.940Z,15.90
2022-09-11T06:31:49.136Z,15.98
2022-09-11T06:34:17.213Z,16.08
2022-09-11T06:36:48.664Z,16.15
2022-09-11T06:39:22.738Z,16.21
2022-09-11T06:41:51.240Z,16.30
2022-09-11T06:44:19.447Z,16.38
2022-09-11T06:46:48.899Z,16.44
2022-09-11T06:49:17.001Z,16.52
2022-09-11T06:51:45.103Z,16.61
2022-09-11T06:54:13.175Z,16.71
2022-09-11T06:56:41.229Z,16.78
2022-09-11T06:59:10.145Z,16.89
2022-09-11T07:01:39.652Z,16.98
2022-09-11T07:04:10.346Z,17.06
2022-09-11T07:06:38.561Z,17.14
2022-09-11T07:09:06.690Z,17.20
2022-09-11T07:11:36.393Z,17.27
2022-09-11T07:14:06.326Z,17.35
2022-09-11T07:16:35.240Z,17.43
2022-09-11T07:19:04.302Z,17.53
2022-09-11T07:21:35.534Z,17.62
2022-09-11T07:24:04.625Z,17.73
2022-09-11T07:26:32.732Z,17.87
2022-09-11T07:29:01.966Z,18.02
2022-09-11T07:31:33.067Z,18.18
2022-09-11T07:34:02.092Z,18.27
2022-09-11T07:36:33.577Z,18.37
2022-09-11T07:39:03.455Z,18.49
2022-09-11T07:41:31.850Z,18.61
2022-09-11T07:44:01.536Z,18.74
2022-09-11T07:46:31.298Z,18.88
2022-09-11T07:48:59.931Z,19.00
2022-09-11T07:51:28.131Z,19.11
2022-09-11T07:54:00.088Z,19.21
2022-09-11T07:56:29.269Z,19.35
2022-09-11T07:58:58.163Z,19.47
2022-09-11T08:01:29.660Z,19.58
2022-09-11T08:04:00.417Z,19.69
2022-09-11T08:06:31.420Z,19.83
2022-09-11T08:09:03.692Z,19.94
2022-09-11T08:11:35.133Z,20.04
2022-09-11T08:14:07.333Z,20.15
2022-09-11T08:16:36.267Z,20.20
2022-09-11T08:19:05.049Z,20.16
2022-09-11T08:21:33.745Z,20.09
2022-09-11T08:24:04.066Z,20.05
2022-09-11T08:26:32.726Z,20.08
2022-09-11T08:29:01.954Z,20.19
2022-09-11T08:31:30.655Z,20.39
2022-09-11T08:33:58.815Z,20.64
2022-09-11T08:36:27.564Z,20.94
2022-09-11T08:38:56.279Z,21.19
2022-09-11T08:41:37.149Z,21.47
2022-09-11T08:44:15.249Z,21.65
2022-09-11T08:46:47.627Z,21.81
2022-09-11T08:49:24.642Z,22.00
2022-09-11T08:51:54.991Z,22.13
2022-09-11T08:54:29.604Z,22.19
2022-09-11T08:57:12.581Z,22.21
2022-09-11T09:00:08.082Z,22.24
2022-09-11T09:03:09.544Z,22.39
2022-09-11T09:05:47.236Z,22.56
2022-09-11T09:08:40.361Z,22.68
2022-09-11T09:11:22.751Z,22.82
2022-09-11T09:14:14.476Z,22.93
2022-09-11T09:16:52.109Z,22.99
2022-09-11T09:19:25.774Z,23.09
2022-09-11T09:22:07.129Z,23.15
2022-09-11T09:24:42.427Z,23.19
2022-09-11T09:27:20.088Z,23.19
2022-09-11T09:29:54.749Z,23.13
2022-09-11T09:32:30.215Z,23.06
2022-09-11T09:35:04.132Z,23.02
2022-09-11T09:37:32.171Z,22.98
2022-09-11T09:40:10.313Z,22.93
2022-09-11T09:43:18.021Z,22.86
2022-09-11T09:46:09.056Z,22.81
2022-09-11T09:48:40.724Z,22.82
2022-09-11T09:51:14.219Z,22.84
2022-09-11T09:53:46.794Z,22.89
2022-09-11T09:56:19.205Z,22.92
2022-09-11T09:59:00.891Z,22.94
2022-09-11T10:01:50.073Z,22.90
2022-09-11T10:04:22.857Z,22.89
2022-09-11T10:06:54.157Z,22.82
2022-09-11T10:09:26.323Z,22.75
2022-09-11T10:11:58.573Z,22.72
2022-09-11T10:14:49.748Z,22.75
2022-09-11T10:17:24.352Z,22.84
2022-09-11T10:19:57.033Z,22.98
2022-09-11T10:22:29.650Z,23.18
2022-09-11T10:25:11.844Z,23.40
2022-09-11T10:28:01.772Z,23.57
2022-09-11T10:30:36.692Z,23.76
2022-09-11T10:33:17.951Z,23.87
2022-09-11T10:35:54.153Z,23.91
2022-09-11T10:38:36.934Z,23.96
2022-09-11T10:41:19.158Z,24.11
2022-09-11T10:43:53.956Z,24.24
2022-09-11T10:46:41.452Z,24.40
2022-09-11T10:49:20.162Z,24.57
2022-09-11T10:52:05.339Z,24.69
2022-09-11T10:54:52.184Z,24.72
2022-09-11T10:57:25.836Z,24.74
2022-09-11T11:00:07.033Z,24.65
2022-09-11T11:02:38.576Z,24.57
2022-09-11T11:05:14.894Z,24.50
2022-09-11T11:08:19.971Z,24.31
2022-09-11T11:11:08.320Z,24.17
2022-09-11T11:13:57.848Z,24.04
2022-09-11T11:16:39.599Z,23.94
2022-09-11T11:19:40.929Z,23.78
2022-09-11T11:22:26.570Z,23.63
2022-09-11T11:25:08.808Z,23.53
2022-09-11T11:28:34.249Z,23.44
2022-09-11T11:31:18.155Z,23.37
2022-09-11T11:34:10.402Z,23.33
2022-09-11T11:36:46.117Z,23.32
2022-09-11T11:39:25.148Z,23.31
2022-09-11T11:42:07.659Z,23.29
2022-09-11T11:44:41.788Z,23.24
2022-09-11T11:47:11.710Z,23.16
2022-09-11T11:49:54.918Z,22.93
2022-09-11T11:52:47.405Z,22.76
2022-09-11T11:55:21.643Z,22.74
2022-09-11T11:58:01.395Z,22.80
2022-09-11T12:00:31.621Z,22.89
2022-09-11T12:03:07.423Z,23.04
2022-09-11T12:05:37.605Z,23.17
2022-09-11T12:08:13.563Z,23.30
2022-09-11T12:10:48.763Z,23.47
2022-09-11T12:13:20.138Z,23.61
2022-09-11T12:16:13.632Z,23.76
2022-09-11T12:18:43.368Z,23.88
2022-09-11T12:21:42.007Z,24.08
2022-09-11T12:24:17.835Z,24.28
2022-09-11T12:26:47.558Z,24.50
2022-09-11T12:29:54.908Z,24.74
2022-09-11T12:32:41.882Z,24.92
2022-09-11T12:35:21.650Z,24.98
2022-09-11T12:38:01.056Z,25.05
2022-09-11T12:40:37.640Z,25.08
2022-09-11T12:43:32.872Z,25.12
2022-09-11T12:46:01.976Z,25.52
2022-09-11T12:48:38.672Z,26.61
2022-09-11T12:51:19.281Z,27.69
2022-09-11T12:53:51.398Z,28.24
2022-09-11T12:56:22.637Z,28.82
2022-09-11T12:58:58.685Z,29.33
2022-09-11T13:01:31.533Z,29.88
2022-09-11T13:04:04.814Z,30.41
2022-09-11T13:06:43.887Z,31.04
2022-09-11T13:09:21.634Z,31.54
2022-09-11T13:11:53.098Z,32.21
2022-09-11T13:14:49.472Z,32.98
2022-09-11T13:17:26.116Z,33.49
2022-09-11T13:19:59.553Z,33.63
2022-09-11T13:22:31.242Z,33.74
2022-09-11T13:25:10.963Z,34.23
2022-09-11T13:27:41.108Z,34.73
2022-09-11T13:30:15.297Z,35.26
2022-09-11T13:32:45.058Z,35.64
2022-09-11T13:35:17.986Z,36.08
2022-09-11T13:37:54.439Z,36.41
2022-09-11T13:40:29.615Z,36.60
2022-09-11T13:42:58.530Z,36.96
2022-09-11T13:45:28.850Z,37.22
2022-09-11T13:47:58.353Z,37.47
2022-09-11T13:50:27.899Z,37.38
2022-09-11T13:52:56.742Z,37.30
2022-09-11T13:55:27.805Z,37.58
2022-09-11T13:57:58.728Z,37.86
2022-09-11T14:00:46.136Z,37.89
2022-09-11T14:03:24.471Z,37.82
2022-09-11T14:05:55.227Z,38.24
2022-09-11T14:08:34.248Z,38.66
2022-09-11T14:11:10.428Z,39.00
2022-09-11T14:13:45.576Z,39.45
2022-09-11T14:16:25.302Z,39.99
2022-09-11T14:18:59.726Z,40.46
2022-09-11T14:21:35.933Z,40.86
2022-09-11T14:24:07.225Z,41.18
2022-09-11T14:26:42.869Z,41.60
2022-09-11T14:29:25.447Z,41.41
2022-09-11T14:32:04.344Z,41.12
2022-09-11T14:34:32.644Z,40.96
2022-09-11T14:37:08.129Z,41.08
2022-09-11T14:39:40.235Z,41.60
2022-09-11T14:42:10.344Z,41.80
2022-09-11T14:44:41.220Z,41.51
2022-09-11T14:47:17.165Z,40.51
2022-09-11T14:49:46.112Z,39.82
2022-09-11T14:52:17.078Z,40.17
2022-09-11T14:54:46.413Z,39.93
2022-09-11T14:57:20.602Z,38.77
2022-09-11T14:59:49.264Z,38.86
2022-09-11T15:02:21.230Z,39.93
2022-09-11T15:04:49.998Z,40.71
2022-09-11T15:07:19.752Z,41.49
2022-09-11T15:09:48.157Z,42.02
2022-09-11T15:12:17.220Z,42.37
2022-09-11T15:14:56.342Z,42.33
2022-09-11T15:17:31.495Z,42.45
2022-09-11T15:20:00.989Z,42.52
2022-09-11T15:22:31.206Z,42.71
2022-09-11T15:25:00.015Z,42.82
2022-09-11T15:27:28.205Z,42.78
2022-09-11T15:29:56.663Z,42.85
2022-09-11T15:32:26.286Z,42.95
2022-09-11T15:34:59.761Z,42.77
2022-09-11T15:37:27.870Z,42.78
2022-09-11T15:39:55.957Z,43.05
2022-09-11T15:42:24.456Z,43.23
2022-09-11T15:44:52.834Z,43.23
2022-09-11T15:47:22.275Z,42.72
2022-09-11T15:49:51.737Z,42.54
2022-09-11T15:52:20.123Z,42.63
2022-09-11T15:54:48.854Z,42.72
2022-09-11T15:57:17.287Z,42.70
2022-09-11T15:59:45.589Z,42.77
2022-09-11T16:02:14.109Z,42.80
2022-09-11T16:04:42.262Z,42.88
2022-09-11T16:07:11.791Z,43.01
2022-09-11T16:09:40.026Z,43.05
2022-09-11T16:12:08.663Z,42.88
2022-09-11T16:14:38.778Z,42.60
2022-09-11T16:17:09.397Z,42.31
2022-09-11T16:19:38.635Z,41.96
2022-09-11T16:22:08.804Z,41.33
2022-09-11T16:24:42.375Z,39.70
2022-09-11T16:27:11.892Z,37.84
2022-09-11T16:32:29.383Z,34.81
2022-09-11T16:34:59.530Z,33.69
2022-09-11T16:37:29.252Z,32.69
2022-09-11T16:39:59.578Z,31.85
2022-09-11T16:42:27.701Z,31.20
2022-09-11T16:44:56.180Z,30.70
2022-09-11T16:47:24.818Z,30.27
2022-09-11T16:50:09.314Z,29.90
2022-09-11T16:52:39.006Z,29.50
2022-09-11T16:55:10.552Z,29.15
2022-09-11T16:57:39.370Z,28.79
2022-09-11T17:00:11.168Z,28.45
2022-09-11T17:02:39.433Z,28.14
2022-09-11T17:05:09.680Z,27.86
2022-09-11T17:07:38.564Z,27.56
2022-09-11T17:10:09.590Z,27.30
2022-09-11T17:12:37.641Z,27.07
2022-09-11T17:15:07.563Z,26.87
2022-09-11T17:17:38.036Z,26.80
2022-09-11T17:20:09.342Z,26.81
2022-09-11T17:22:37.845Z,26.64
2022-09-11T17:25:08.896Z,26.41
2022-09-11T17:27:37.270Z,26.18
2022-09-11T17:30:06.704Z,25.97
2022-09-11T17:32:37.237Z,25.74
2022-09-11T17:35:06.303Z,25.50
2022-09-11T17:37:34.554Z,25.29
2022-09-11T17:40:03.510Z,25.08
2022-09-11T17:42:33.037Z,24.87
2022-09-11T17:45:02.978Z,24.66
2022-09-11T17:47:32.783Z,24.44
2022-09-11T17:50:02.411Z,24.24
2022-09-11T17:52:33.045Z,24.01
2022-09-11T17:55:01.334Z,23.80
2022-09-11T17:57:30.514Z,23.60
2022-09-11T18:00:00.583Z,23.41
2022-09-11T18:02:28.763Z,23.22
2022-09-11T18:04:56.880Z,23.07
2022-09-11T18:07:24.982Z,22.93
2022-09-11T18:09:56.410Z,22.81
2022-09-11T18:12:25.995Z,22.71
2022-09-11T18:14:55.967Z,22.59
2022-09-11T18:17:25.429Z,22.50
2022-09-11T18:19:53.548Z,22.40
2022-09-11T18:22:22.399Z,22.28
2022-09-11T18:24:50.783Z,22.17
2022-09-11T18:27:19.855Z,22.06
2022-09-11T18:29:50.109Z,21.99
2022-09-11T18:32:19.979Z,21.92
2022-09-11T18:34:49.670Z,21.81
2022-09-11T18:37:19.626Z,21.73
2022-09-11T18:39:48.292Z,21.65
2022-09-11T18:42:17.994Z,21.60
2022-09-11T18:44:46.433Z,21.55
2022-09-11T18:47:14.570Z,21.49
2022-09-11T18:49:43.692Z,21.42
2022-09-11T18:52:14.584Z,21.34
2022-09-11T18:54:42.642Z,21.29
2022-09-11T18:57:10.755Z,21.23
2022-09-11T18:59:39.467Z,21.18
2022-09-11T19:02:08.211Z,21.11
2022-09-11T19:04:36.423Z,21.01
2022-09-11T19:07:05.005Z,20.92
2022-09-11T19:09:35.207Z,20.84
2022-09-11T19:12:05.385Z,20.74
2022-09-11T19:14:35.893Z,20.63
2022-09-11T19:17:04.302Z,20.53
2022-09-11T19:19:32.741Z,20.44
2022-09-11T19:22:00.921Z,20.37
2022-09-11T19:24:30.049Z,20.30
2022-09-11T19:27:00.394Z,20.23
2022-09-11T19:29:28.725Z,20.16
2022-09-11T19:31:56.827Z,20.09
2022-09-11T19:34:24.951Z,20.04
2022-09-11T19:36:53.299Z,19.96
2022-09-11T19:39:21.824Z,19.89
2022-09-11T19:41:50.156Z,19.84
2022-09-11T19:44:20.086Z,19.80
2022-09-11T19:46:49.890Z,19.76
2022-09-11T19:49:18.128Z,19.76
2022-09-11T19:51:46.688Z,19.75
2022-09-11T19:54:15.515Z,19.74
2022-09-11T19:56:45.125Z,19.73
2022-09-11T19:59:14.404Z,19.73
2022-09-11T20:01:47.410Z,19.71
2022-09-11T20:04:17.648Z,19.69
2022-09-11T20:09:30.282Z,19.58
2022-09-11T20:12:00.703Z,19.48
2022-09-11T20:14:29.569Z,19.40
2022-09-11T20:17:00.903Z,19.32
2022-09-11T20:19:29.668Z,19.24
2022-09-11T20:21:57.928Z,19.16
2022-09-11T20:24:26.615Z,19.08
2022-09-11T20:26:55.128Z,19.03
2022-09-11T20:29:23.396Z,18.96
2022-09-11T20:31:53.442Z,18.89
2022-09-11T20:34:27.801Z,18.85
2022-09-11T20:36:56.958Z,18.78
2022-09-11T20:39:25.039Z,18.73
2022-09-11T20:41:53.095Z,18.68
2022-09-11T20:44:21.143Z,18.64
2022-09-11T20:46:49.206Z,18.60
2022-09-11T20:49:17.471Z,18.55
2022-09-11T20:51:46.870Z,18.51
2022-09-11T20:54:15.598Z,18.45
2022-09-11T20:56:44.425Z,18.39
2022-09-11T20:59:12.578Z,18.34
2022-09-11T21:01:40.946Z,18.31
2022-09-11T21:04:09.042Z,18.28
2022-09-11T21:06:37.279Z,18.26
2022-09-11T21:09:09.598Z,18.24
2022-09-11T21:11:39.204Z,18.20
2022-09-11T21:14:07.826Z,18.17
2022-09-11T21:16:36.324Z,18.16
2022-09-11T21:19:06.049Z,18.11
2022-09-11T21:21:37.735Z,18.08
2022-09-11T21:24:11.302Z,18.05
2022-09-11T21:26:39.659Z,18.00
2022-09-11T21:29:10.424Z,17.95
2022-09-11T21:31:38.565Z,17.92
2022-09-11T21:34:07.256Z,17.88
2022-09-11T21:36:36.989Z,17.81
2022-09-11T21:39:06.939Z,17.79
2022-09-11T21:41:35.061Z,17.77
2022-09-11T21:44:03.728Z,17.71
2022-09-11T21:46:32.017Z,17.68
2022-09-11T21:49:00.269Z,17.63
2022-09-11T21:51:28.554Z,17.57
2022-09-11T21:54:01.388Z,17.53
2022-09-11T21:56:33.416Z,17.48
2022-09-11T21:59:02.426Z,17.44
2022-09-11T22:01:32.050Z,17.40
2022-09-11T22:04:01.401Z,17.36
2022-09-11T22:06:31.215Z,17.31
2022-09-11T22:09:00.455Z,17.28
2022-09-11T22:11:30.367Z,17.24
2022-09-11T22:13:58.467Z,17.20
2022-09-11T22:16:26.639Z,17.14
2022-09-11T22:18:57.087Z,17.11
2022-09-11T22:21:25.564Z,17.05
2022-09-11T22:23:54.113Z,17.01
2022-09-11T22:26:24.035Z,16.97
2022-09-11T22:28:53.787Z,16.93
2022-09-11T22:31:24.682Z,16.89
2022-09-11T22:33:53.717Z,16.85
2022-09-11T22:36:25.154Z,16.82
2022-09-11T22:38:53.693Z,16.77
2022-09-11T22:41:22.954Z,16.74
2022-09-11T22:43:51.160Z,16.72
2022-09-11T22:46:22.205Z,16.68
2022-09-11T22:48:50.785Z,16.65
2022-09-11T22:51:18.876Z,16.61
2022-09-11T22:53:47.227Z,16.58
2022-09-11T22:56:17.640Z,16.56
2022-09-11T22:58:45.847Z,16.53
2022-09-11T23:01:21.049Z,16.50
2022-09-11T23:03:53.561Z,16.45
2022-09-11T23:06:39.636Z,16.42
2022-09-11T23:09:10.079Z,16.37
2022-09-11T23:11:38.171Z,16.33
2022-09-11T23:14:11.865Z,16.31
2022-09-11T23:16:42.433Z,16.27
2022-09-11T23:19:14.913Z,16.23
2022-09-11T23:21:43.389Z,16.20
2022-09-11T23:24:14.510Z,16.17
2022-09-11T23:26:43.315Z,16.13
2022-09-11T23:29:11.968Z,16.10
2022-09-11T23:31:41.232Z,16.08
2022-09-11T23:34:15.379Z,16.05
2022-09-11T23:36:44.374Z,16.02
2022-09-11T23:39:12.490Z,15.99
2022-09-11T23:41:40.816Z,15.97
2022-09-11T23:44:08.894Z,15.94
2022-09-11T23:46:37.070Z,15.93
2022-09-11T23:49:06.277Z,15.91
2022-09-11T23:51:35.735Z,15.89
2022-09-11T23:54:03.866Z,15.88
2022-09-11T23:56:31.899Z,15.86
2022-09-11T23:59:00.140Z,15.83
